sensor_id;sensor_type;location;lat;lon;timestamp;pressure;altitude;pressure_sealevel;temperature;humidity
32759;BME280;19125;52.360;9.974;2023-04-02T00:02:34;79790.72;;;-145.17;64.72
32759;BME280;19125;52.360;9.974;2023-04-02T00:08:19;82321.56;;;-145.17;64.53
32759;BME280;19125;52.360;9.974;2023-04-02T00:10:49;82676.44;;;-145.17;64.65
32759;BME280;19125;52.360;9.974;2023-04-02T00:15:45;82753.75;;;-145.17;65.00
32759;BME280;19125;52.360;9.974;2023-04-02T00:18:20;82414.72;;;-145.17;65.29
32759;BME280;19125;52.360;9.974;2023-04-02T00:21:11;82841.00;;;-145.17;65.37
32759;BME280;19125;52.360;9.974;2023-04-02T00:23:39;83037.28;;;-145.17;64.83
32759;BME280;19125;52.360;9.974;2023-04-02T00:29:05;84354.09;;;-145.17;65.05
32759;BME280;19125;52.360;9.974;2023-04-02T00:31:32;84338.25;;;-145.17;64.77
32759;BME280;19125;52.360;9.974;2023-04-02T00:33:59;84185.50;;;-145.17;65.10
32759;BME280;19125;52.360;9.974;2023-04-02T00:36:29;84084.38;;;-145.17;65.66
32759;BME280;19125;52.360;9.974;2023-04-02T00:38:57;83711.50;;;-145.17;65.88
32759;BME280;19125;52.360;9.974;2023-04-02T00:41:25;83318.88;;;-145.17;65.64
32759;BME280;19125;52.360;9.974;2023-04-02T00:43:54;83447.75;;;-145.17;65.33
32759;BME280;19125;52.360;9.974;2023-04-02T00:46:28;84838.09;;;-145.17;64.88
32759;BME280;19125;52.360;9.974;2023-04-02T00:49:11;85992.78;;;-145.17;65.00
32759;BME280;19125;52.360;9.974;2023-04-02T00:52:00;86909.63;;;-145.17;64.33
32759;BME280;19125;52.360;9.974;2023-04-02T00:54:30;87409.81;;;-145.17;64.08
32759;BME280;19125;52.360;9.974;2023-04-02T00:56:57;87657.94;;;-145.17;63.06
32759;BME280;19125;52.360;9.974;2023-04-02T00:59:32;87790.97;;;-145.17;62.86
32759;BME280;19125;52.360;9.974;2023-04-02T01:02:19;87858.44;;;-145.17;62.39
32759;BME280;19125;52.360;9.974;2023-04-02T01:05:01;87921.97;;;-145.17;62.84
32759;BME280;19125;52.360;9.974;2023-04-02T01:07:41;87971.63;;;-145.17;62.53
32759;BME280;19125;52.360;9.974;2023-04-02T01:13:03;88033.16;;;-145.17;62.13
32759;BME280;19125;52.360;9.974;2023-04-02T01:15:41;88055.00;;;-145.17;61.51
32759;BME280;19125;52.360;9.974;2023-04-02T01:18:36;88072.88;;;-145.17;61.69
32759;BME280;19125;52.360;9.974;2023-04-02T01:21:40;88072.88;;;-145.17;61.39
32759;BME280;19125;52.360;9.974;2023-04-02T01:24:11;88045.06;;;-145.17;62.27
32759;BME280;19125;52.360;9.974;2023-04-02T01:26:53;88064.91;;;-145.17;61.65
32759;BME280;19125;52.360;9.974;2023-04-02T01:31:55;88098.66;;;-145.17;61.98
32759;BME280;19125;52.360;9.974;2023-04-02T01:34:24;88088.75;;;-145.17;61.80
32759;BME280;19125;52.360;9.974;2023-04-02T01:37:05;88108.59;;;-145.17;61.60
32759;BME280;19125;52.360;9.974;2023-04-02T01:45:00;88090.72;;;-145.17;61.54
32759;BME280;19125;52.360;9.974;2023-04-02T01:47:26;88112.56;;;-145.17;61.45
32759;BME280;19125;52.360;9.974;2023-04-02T01:49:58;88116.53;;;-145.17;61.15
32759;BME280;19125;52.360;9.974;2023-04-02T01:52:38;88090.72;;;-145.17;60.43
32759;BME280;19125;52.360;9.974;2023-04-02T01:55:09;88084.78;;;-145.17;60.01
32759;BME280;19125;52.360;9.974;2023-04-02T01:57:45;88116.53;;;-145.17;59.44
32759;BME280;19125;52.360;9.974;2023-04-02T02:00:13;88116.53;;;-145.17;59.44
32759;BME280;19125;52.360;9.974;2023-04-02T02:02:40;88072.88;;;-145.17;60.00
32759;BME280;19125;52.360;9.974;2023-04-02T02:05:12;88096.69;;;-145.17;59.56
32759;BME280;19125;52.360;9.974;2023-04-02T02:07:38;88080.81;;;-145.17;60.04
32759;BME280;19125;52.360;9.974;2023-04-02T02:10:05;88078.81;;;-145.17;59.52
32759;BME280;19125;52.360;9.974;2023-04-02T02:12:32;88084.78;;;-145.17;59.88
32759;BME280;19125;52.360;9.974;2023-04-02T02:14:57;88056.97;;;-145.17;59.90
32759;BME280;19125;52.360;9.974;2023-04-02T02:17:27;88094.69;;;-145.17;60.03
32759;BME280;19125;52.360;9.974;2023-04-02T02:19:56;88094.69;;;-145.17;59.96
32759;BME280;19125;52.360;9.974;2023-04-02T02:22:30;88068.88;;;-145.17;59.48
32759;BME280;19125;52.360;9.974;2023-04-02T02:24:59;88066.91;;;-145.17;59.68
32759;BME280;19125;52.360;9.974;2023-04-02T02:29:54;88070.88;;;-145.17;59.60
32759;BME280;19125;52.360;9.974;2023-04-02T02:32:25;88049.03;;;-145.17;59.22
32759;BME280;19125;52.360;9.974;2023-04-02T02:35:10;88072.88;;;-145.17;59.65
32759;BME280;19125;52.360;9.974;2023-04-02T02:37:43;88066.91;;;-145.17;59.33
32759;BME280;19125;52.360;9.974;2023-04-02T02:40:15;88100.66;;;-145.17;59.47
32759;BME280;19125;52.360;9.974;2023-04-02T02:42:49;88066.91;;;-145.17;59.18
32759;BME280;19125;52.360;9.974;2023-04-02T02:45:26;88055.00;;;-145.17;59.21
32759;BME280;19125;52.360;9.974;2023-04-02T02:47:53;88041.09;;;-145.17;59.27
32759;BME280;19125;52.360;9.974;2023-04-02T02:50:22;88076.84;;;-145.17;59.01
32759;BME280;19125;52.360;9.974;2023-04-02T02:52:53;88049.03;;;-145.17;58.76
32759;BME280;19125;52.360;9.974;2023-04-02T02:55:37;88037.13;;;-145.17;59.29
32759;BME280;19125;52.360;9.974;2023-04-02T02:58:14;88053.00;;;-145.17;58.83
32759;BME280;19125;52.360;9.974;2023-04-02T03:00:41;88076.84;;;-145.17;58.80
32759;BME280;19125;52.360;9.974;2023-04-02T03:03:10;88056.97;;;-145.17;58.78
32759;BME280;19125;52.360;9.974;2023-04-02T03:05:37;88037.13;;;-145.17;58.50
32759;BME280;19125;52.360;9.974;2023-04-02T03:08:05;88011.31;;;-145.17;58.52
32759;BME280;19125;52.360;9.974;2023-04-02T03:10:49;88017.28;;;-145.17;57.87
32759;BME280;19125;52.360;9.974;2023-04-02T03:13:23;87923.97;;;-145.17;58.48
32759;BME280;19125;52.360;9.974;2023-04-02T03:16:20;87987.50;;;-145.17;57.96
32759;BME280;19125;52.360;9.974;2023-04-02T03:22:10;87941.84;;;-145.17;58.07
32759;BME280;19125;52.360;9.974;2023-04-02T03:27:25;88029.19;;;-145.17;57.94
32759;BME280;19125;52.360;9.974;2023-04-02T03:32:54;87925.94;;;-145.17;57.43
32759;BME280;19125;52.360;9.974;2023-04-02T03:35:34;87955.72;;;-145.17;57.09
32759;BME280;19125;52.360;9.974;2023-04-02T03:38:27;87945.81;;;-145.17;57.08
32759;BME280;19125;52.360;9.974;2023-04-02T03:43:27;87886.25;;;-145.17;56.21
32759;BME280;19125;52.360;9.974;2023-04-02T03:46:01;87908.09;;;-145.17;56.28
32759;BME280;19125;52.360;9.974;2023-04-02T03:48:42;87882.28;;;-145.17;56.03
32759;BME280;19125;52.360;9.974;2023-04-02T03:53:47;87866.41;;;-145.17;55.85
32759;BME280;19125;52.360;9.974;2023-04-02T03:56:23;87862.44;;;-145.17;56.08
32759;BME280;19125;52.360;9.974;2023-04-02T03:58:59;87844.56;;;-145.17;56.63
32759;BME280;19125;52.360;9.974;2023-04-02T04:01:35;87884.25;;;-145.17;56.27
32759;BME280;19125;52.360;9.974;2023-04-02T04:04:15;87888.22;;;-145.17;56.38
32759;BME280;19125;52.360;9.974;2023-04-02T04:06:45;87935.88;;;-145.17;56.62
32759;BME280;19125;52.360;9.974;2023-04-02T04:09:36;87866.41;;;-145.17;56.46
32759;BME280;19125;52.360;9.974;2023-04-02T04:14:32;87864.41;;;-145.17;55.63
32759;BME280;19125;52.360;9.974;2023-04-02T04:17:10;87860.44;;;-145.17;55.65
32759;BME280;19125;52.360;9.974;2023-04-02T04:19:45;87838.59;;;-145.17;55.19
32759;BME280;19125;52.360;9.974;2023-04-02T04:22:21;87794.94;;;-145.17;55.05
32759;BME280;19125;52.360;9.974;2023-04-02T04:24:55;87834.63;;;-145.17;55.39
32759;BME280;19125;52.360;9.974;2023-04-02T04:30:25;87820.72;;;-145.17;54.48
32759;BME280;19125;52.360;9.974;2023-04-02T04:32:56;87814.78;;;-145.17;54.81
32759;BME280;19125;52.360;9.974;2023-04-02T04:35:47;87830.66;;;-145.17;55.08
32759;BME280;19125;52.360;9.974;2023-04-02T04:38:34;87777.06;;;-145.17;54.89
32759;BME280;19125;52.360;9.974;2023-04-02T04:41:15;87800.88;;;-145.17;55.07
32759;BME280;19125;52.360;9.974;2023-04-02T04:43:54;87808.81;;;-145.17;55.03
32759;BME280;19125;52.360;9.974;2023-04-02T04:51:29;87771.09;;;-145.17;54.23
32759;BME280;19125;52.360;9.974;2023-04-02T04:53:56;87775.06;;;-145.17;54.85
32759;BME280;19125;52.360;9.974;2023-04-02T04:56:26;87804.84;;;-145.17;54.33
32759;BME280;19125;52.360;9.974;2023-04-02T04:58:55;87777.06;;;-145.17;53.62
32759;BME280;19125;52.360;9.974;2023-04-02T05:01:25;87757.22;;;-145.17;53.87
32759;BME280;19125;52.360;9.974;2023-04-02T05:04:14;87733.38;;;-145.17;54.06
32759;BME280;19125;52.360;9.974;2023-04-02T05:14:59;87729.41;;;-145.17;53.67
32759;BME280;19125;52.360;9.974;2023-04-02T05:17:30;87719.50;;;-145.17;52.96
32759;BME280;19125;52.360;9.974;2023-04-02T05:20:28;87713.53;;;-145.17;53.33
32759;BME280;19125;52.360;9.974;2023-04-02T05:23:04;87725.44;;;-145.17;53.32
32759;BME280;19125;52.360;9.974;2023-04-02T05:25:36;87723.47;;;-145.17;53.16
32759;BME280;19125;52.360;9.974;2023-04-02T05:28:17;87717.50;;;-145.17;53.01
32759;BME280;19125;52.360;9.974;2023-04-02T05:30:51;87709.56;;;-145.17;53.58
32759;BME280;19125;52.360;9.974;2023-04-02T05:33:24;87721.47;;;-145.17;53.42
32759;BME280;19125;52.360;9.974;2023-04-02T05:36:11;87723.47;;;-145.17;52.85
32759;BME280;19125;52.360;9.974;2023-04-02T05:38:44;87715.53;;;-145.17;52.54
32759;BME280;19125;52.360;9.974;2023-04-02T05:44:26;87747.28;;;-145.17;52.89
32759;BME280;19125;52.360;9.974;2023-04-02T05:49:40;87747.28;;;-145.17;52.51
32759;BME280;19125;52.360;9.974;2023-04-02T05:52:11;87665.91;;;-145.17;52.65
32759;BME280;19125;52.360;9.974;2023-04-02T05:57:18;87723.47;;;-145.17;52.73
32759;BME280;19125;52.360;9.974;2023-04-02T05:59:52;87685.75;;;-145.17;52.55
32759;BME280;19125;52.360;9.974;2023-04-02T06:02:32;87646.03;;;-145.17;52.45
32759;BME280;19125;52.360;9.974;2023-04-02T06:05:16;87648.03;;;-145.17;52.35
32759;BME280;19125;52.360;9.974;2023-04-02T06:10:28;87661.94;;;-145.17;51.78
32759;BME280;19125;52.360;9.974;2023-04-02T06:12:58;87600.38;;;-145.17;51.60
32759;BME280;19125;52.360;9.974;2023-04-02T06:15:28;87604.34;;;-145.17;52.14
32759;BME280;19125;52.360;9.974;2023-04-02T06:18:17;87713.53;;;-145.17;52.04
32759;BME280;19125;52.360;9.974;2023-04-02T06:20:43;87671.84;;;-145.17;52.04
32759;BME280;19125;52.360;9.974;2023-04-02T06:23:11;87659.94;;;-145.17;52.04
32759;BME280;19125;52.360;9.974;2023-04-02T06:25:41;87648.03;;;-145.17;52.12
32759;BME280;19125;52.360;9.974;2023-04-02T06:28:15;87624.22;;;-145.17;51.97
32759;BME280;19125;52.360;9.974;2023-04-02T06:30:42;87663.91;;;-145.17;52.26
32759;BME280;19125;52.360;9.974;2023-04-02T06:33:10;87679.78;;;-145.17;52.11
32759;BME280;19125;52.360;9.974;2023-04-02T06:35:39;87661.94;;;-145.17;52.48
32759;BME280;19125;52.360;9.974;2023-04-02T06:38:12;87626.19;;;-145.17;51.67
32759;BME280;19125;52.360;9.974;2023-04-02T06:41:00;87644.06;;;-145.17;51.98
32759;BME280;19125;52.360;9.974;2023-04-02T06:43:34;87655.97;;;-145.17;52.14
32759;BME280;19125;52.360;9.974;2023-04-02T06:46:07;87584.50;;;-145.17;51.60
32759;BME280;19125;52.360;9.974;2023-04-02T06:48:36;87612.28;;;-145.17;51.53
32759;BME280;19125;52.360;9.974;2023-04-02T06:51:09;87588.47;;;-145.17;52.02
32759;BME280;19125;52.360;9.974;2023-04-02T06:53:38;87604.34;;;-145.17;52.22
32759;BME280;19125;52.360;9.974;2023-04-02T06:58:32;87624.22;;;-145.17;52.40
32759;BME280;19125;52.360;9.974;2023-04-02T07:00:58;87624.22;;;-145.17;51.86
32759;BME280;19125;52.360;9.974;2023-04-02T07:03:24;87642.06;;;-145.17;52.06
32759;BME280;19125;52.360;9.974;2023-04-02T07:05:51;87608.31;;;-145.17;52.25
32759;BME280;19125;52.360;9.974;2023-04-02T07:08:17;87614.28;;;-145.17;51.80
32759;BME280;19125;52.360;9.974;2023-04-02T07:10:43;87588.47;;;-145.17;51.19
32759;BME280;19125;52.360;9.974;2023-04-02T07:13:14;87634.13;;;-145.17;51.59
32759;BME280;19125;52.360;9.974;2023-04-02T07:15:40;87584.50;;;-145.17;51.64
32759;BME280;19125;52.360;9.974;2023-04-02T07:18:05;87572.59;;;-145.17;51.08
32759;BME280;19125;52.360;9.974;2023-04-02T07:20:33;87608.31;;;-145.17;51.30
32759;BME280;19125;52.360;9.974;2023-04-02T07:23:00;87644.06;;;-145.17;51.60
32759;BME280;19125;52.360;9.974;2023-04-02T07:25:26;87586.50;;;-145.17;51.49
32759;BME280;19125;52.360;9.974;2023-04-02T07:27:52;87576.56;;;-145.17;51.53
32759;BME280;19125;52.360;9.974;2023-04-02T07:30:18;87636.13;;;-145.17;51.16
32759;BME280;19125;52.360;9.974;2023-04-02T07:32:44;87592.44;;;-145.17;51.51
32759;BME280;19125;52.360;9.974;2023-04-02T07:35:09;87582.53;;;-145.17;51.07
32759;BME280;19125;52.360;9.974;2023-04-02T07:37:36;87584.50;;;-145.17;51.19
32759;BME280;19125;52.360;9.974;2023-04-02T07:40:03;87580.53;;;-145.17;51.21
32759;BME280;19125;52.360;9.974;2023-04-02T07:42:30;87622.22;;;-145.17;51.05
32759;BME280;19125;52.360;9.974;2023-04-02T07:44:55;87568.63;;;-145.17;51.48
32759;BME280;19125;52.360;9.974;2023-04-02T07:47:20;87586.50;;;-145.17;51.78
32759;BME280;19125;52.360;9.974;2023-04-02T07:49:46;87608.31;;;-145.17;51.41
32759;BME280;19125;52.360;9.974;2023-04-02T07:52:11;87590.47;;;-145.17;51.55
32759;BME280;19125;52.360;9.974;2023-04-02T07:54:36;87592.44;;;-145.17;51.68
32759;BME280;19125;52.360;9.974;2023-04-02T07:57:02;87638.09;;;-145.17;51.97
32759;BME280;19125;52.360;9.974;2023-04-02T07:59:28;87588.47;;;-145.17;51.80
32759;BME280;19125;52.360;9.974;2023-04-02T08:01:53;87592.44;;;-145.17;51.40
32759;BME280;19125;52.360;9.974;2023-04-02T08:04:21;87568.63;;;-145.17;51.67
32759;BME280;19125;52.360;9.974;2023-04-02T08:06:47;87588.47;;;-145.17;51.40
32759;BME280;19125;52.360;9.974;2023-04-02T08:09:14;87588.47;;;-145.17;51.50
32759;BME280;19125;52.360;9.974;2023-04-02T08:11:40;87574.56;;;-145.17;51.49
32759;BME280;19125;52.360;9.974;2023-04-02T08:14:09;87554.72;;;-145.17;50.99
32759;BME280;19125;52.360;9.974;2023-04-02T08:16:49;87556.72;;;-145.17;50.79
32759;BME280;19125;52.360;9.974;2023-04-02T08:19:15;87532.91;;;-145.17;51.15
32759;BME280;19125;52.360;9.974;2023-04-02T08:21:40;87497.16;;;-145.17;50.95
32759;BME280;19125;52.360;9.974;2023-04-02T08:24:06;87517.00;;;-145.17;50.75
32759;BME280;19125;52.360;9.974;2023-04-02T08:26:31;87552.75;;;-145.17;50.78
32759;BME280;19125;52.360;9.974;2023-04-02T08:28:57;87558.69;;;-145.17;50.26
32759;BME280;19125;52.360;9.974;2023-04-02T08:31:22;87505.09;;;-145.17;50.17
32759;BME280;19125;52.360;9.974;2023-04-02T08:33:48;87501.13;;;-145.17;50.00
32759;BME280;19125;52.360;9.974;2023-04-02T08:36:19;87505.09;;;-145.17;50.01
32759;BME280;19125;52.360;9.974;2023-04-02T08:38:48;87520.97;;;-145.17;49.72
32759;BME280;19125;52.360;9.974;2023-04-02T08:41:23;87532.91;;;-145.17;50.18
32759;BME280;19125;52.360;9.974;2023-04-02T08:46:37;87530.91;;;-145.17;50.12
32759;BME280;19125;52.360;9.974;2023-04-02T08:49:15;87530.91;;;-145.17;50.38
32759;BME280;19125;52.360;9.974;2023-04-02T08:51:43;87536.88;;;-145.17;50.43
32759;BME280;19125;52.360;9.974;2023-04-02T08:54:29;87501.13;;;-145.17;50.38
32759;BME280;19125;52.360;9.974;2023-04-02T08:57:05;87505.09;;;-145.17;50.54
32759;BME280;19125;52.360;9.974;2023-04-02T08:59:33;87461.44;;;-145.17;49.45
32759;BME280;19125;52.360;9.974;2023-04-02T09:04:43;87471.34;;;-145.17;49.24
32759;BME280;19125;52.360;9.974;2023-04-02T09:07:13;87509.06;;;-145.17;49.09
32759;BME280;19125;52.360;9.974;2023-04-02T09:09:41;87447.53;;;-145.17;48.96
32759;BME280;19125;52.360;9.974;2023-04-02T09:12:15;87481.28;;;-145.17;48.67
32759;BME280;19125;52.360;9.974;2023-04-02T09:14:44;87437.63;;;-145.17;48.72
32759;BME280;19125;52.360;9.974;2023-04-02T09:17:17;87447.53;;;-145.17;48.59
32759;BME280;19125;52.360;9.974;2023-04-02T09:19:50;87417.75;;;-145.17;48.84
32759;BME280;19125;52.360;9.974;2023-04-02T09:22:22;87437.63;;;-145.17;48.69
32759;BME280;19125;52.360;9.974;2023-04-02T09:24:53;87425.69;;;-145.17;48.84
32759;BME280;19125;52.360;9.974;2023-04-02T09:27:21;87425.69;;;-145.17;48.51
32759;BME280;19125;52.360;9.974;2023-04-02T09:29:50;87425.69;;;-145.17;48.58
32759;BME280;19125;52.360;9.974;2023-04-02T09:32:34;87401.88;;;-145.17;48.15
32759;BME280;19125;52.360;9.974;2023-04-02T09:35:07;87433.66;;;-145.17;47.73
32759;BME280;19125;52.360;9.974;2023-04-02T09:37:34;87386.00;;;-145.17;47.94
32759;BME280;19125;52.360;9.974;2023-04-02T09:42:39;87378.06;;;-145.17;48.22
32759;BME280;19125;52.360;9.974;2023-04-02T09:45:23;87356.22;;;-145.17;48.04
32759;BME280;19125;52.360;9.974;2023-04-02T09:47:50;87322.47;;;-145.17;47.47
32759;BME280;19125;52.360;9.974;2023-04-02T09:50:42;87376.06;;;-145.17;47.77
32759;BME280;19125;52.360;9.974;2023-04-02T09:56:06;87348.28;;;-145.17;47.47
32759;BME280;19125;52.360;9.974;2023-04-02T09:58:31;87370.13;;;-145.17;47.27
32759;BME280;19125;52.360;9.974;2023-04-02T10:00:57;87370.13;;;-145.17;46.74
32759;BME280;19125;52.360;9.974;2023-04-02T10:03:29;87334.41;;;-145.17;46.36
32759;BME280;19125;52.360;9.974;2023-04-02T10:08:32;87332.41;;;-145.17;46.56
32759;BME280;19125;52.360;9.974;2023-04-02T10:11:03;87322.47;;;-145.17;45.92
32759;BME280;19125;52.360;9.974;2023-04-02T10:21:17;87264.91;;;-145.17;44.98
32759;BME280;19125;52.360;9.974;2023-04-02T10:23:44;87306.59;;;-145.17;44.84
32759;BME280;19125;52.360;9.974;2023-04-02T10:32:04;87241.09;;;-145.17;45.35
32759;BME280;19125;52.360;9.974;2023-04-02T10:40:43;87169.66;;;-145.17;42.88
32759;BME280;19125;52.360;9.974;2023-04-02T10:45:50;87167.66;;;-145.17;42.82
32759;BME280;19125;52.360;9.974;2023-04-02T10:51:04;87175.59;;;-145.17;42.39
32759;BME280;19125;52.360;9.974;2023-04-02T10:53:40;87183.53;;;-145.17;43.47
32759;BME280;19125;52.360;9.974;2023-04-02T10:56:11;87139.88;;;-145.17;42.61
32759;BME280;19125;52.360;9.974;2023-04-02T10:58:53;87139.88;;;-145.17;41.90
32759;BME280;19125;52.360;9.974;2023-04-02T11:01:25;87080.31;;;-145.17;41.54
32759;BME280;19125;52.360;9.974;2023-04-02T11:03:59;87106.13;;;-145.17;40.83
32759;BME280;19125;52.360;9.974;2023-04-02T11:06:34;87082.31;;;-145.17;41.20
32759;BME280;19125;52.360;9.974;2023-04-02T11:09:05;87076.34;;;-145.17;41.24
32759;BME280;19125;52.360;9.974;2023-04-02T11:11:36;87034.69;;;-145.17;40.75
32759;BME280;19125;52.360;9.974;2023-04-02T11:16:43;87074.38;;;-145.17;40.47
32759;BME280;19125;52.360;9.974;2023-04-02T11:22:35;87159.72;;;-145.17;41.27
32759;BME280;19125;52.360;9.974;2023-04-02T11:24:41;87131.94;;;-145.17;41.79
32759;BME280;19125;52.360;9.974;2023-04-02T11:32:47;87076.34;;;-145.17;41.47
32759;BME280;19125;52.360;9.974;2023-04-02T11:46:04;86957.28;;;-145.17;39.10
32759;BME280;19125;52.360;9.974;2023-04-02T11:50:57;86891.78;;;-145.17;38.91
32759;BME280;19125;52.360;9.974;2023-04-02T11:53:32;86877.88;;;-145.17;37.79
32759;BME280;19125;52.360;9.974;2023-04-02T11:59:03;86864.00;;;-145.17;37.18
32759;BME280;19125;52.360;9.974;2023-04-02T12:10:27;86864.00;;;-145.17;36.95
32759;BME280;19125;52.360;9.974;2023-04-02T12:12:56;86848.13;;;-145.17;36.60
32759;BME280;19125;52.360;9.974;2023-04-02T12:15:47;86869.94;;;-145.17;36.87
32759;BME280;19125;52.360;9.974;2023-04-02T12:18:16;86838.19;;;-145.17;37.03
32759;BME280;19125;52.360;9.974;2023-04-02T12:20:52;86794.53;;;-145.17;36.65
32759;BME280;19125;52.360;9.974;2023-04-02T12:23:21;86800.47;;;-145.17;36.95
32759;BME280;19125;52.360;9.974;2023-04-02T12:26:02;86806.44;;;-145.17;37.32
32759;BME280;19125;52.360;9.974;2023-04-02T12:28:31;86796.50;;;-145.17;36.74
32759;BME280;19125;52.360;9.974;2023-04-02T12:31:11;86742.91;;;-145.17;35.29
32759;BME280;19125;52.360;9.974;2023-04-02T12:33:41;86758.81;;;-145.17;35.46
32759;BME280;19125;52.360;9.974;2023-04-02T12:36:18;86725.06;;;-145.17;35.83
32759;BME280;19125;52.360;9.974;2023-04-02T12:38:46;86709.19;;;-145.17;35.90
32759;BME280;19125;52.360;9.974;2023-04-02T12:41:25;86727.03;;;-145.17;36.24
32759;BME280;19125;52.360;9.974;2023-04-02T12:44:05;86770.72;;;-145.17;35.60
32759;BME280;19125;52.360;9.974;2023-04-02T12:46:37;86723.06;;;-145.17;36.02
32759;BME280;19125;52.360;9.974;2023-04-02T12:49:05;86754.84;;;-145.17;36.07
32759;BME280;19125;52.360;9.974;2023-04-02T12:51:32;86721.09;;;-145.17;35.33
32759;BME280;19125;52.360;9.974;2023-04-02T12:53:58;86792.53;;;-145.17;35.76
32759;BME280;19125;52.360;9.974;2023-04-02T12:56:23;86820.31;;;-145.17;35.70
32759;BME280;19125;52.360;9.974;2023-04-02T12:58:54;86852.09;;;-145.17;36.00
32759;BME280;19125;52.360;9.974;2023-04-02T13:01:21;86921.53;;;-145.17;35.74
32759;BME280;19125;52.360;9.974;2023-04-02T13:04:05;86858.03;;;-145.17;37.01
32759;BME280;19125;52.360;9.974;2023-04-02T13:06:33;86834.22;;;-145.17;35.67
32759;BME280;19125;52.360;9.974;2023-04-02T13:09:02;86826.28;;;-145.17;35.80
32759;BME280;19125;52.360;9.974;2023-04-02T13:11:38;86814.38;;;-145.17;35.78
32759;BME280;19125;52.360;9.974;2023-04-02T13:14:07;86786.59;;;-145.17;36.10
32759;BME280;19125;52.360;9.974;2023-04-02T13:16:40;86760.78;;;-145.17;35.90
32759;BME280;19125;52.360;9.974;2023-04-02T13:21:52;86814.38;;;-145.17;34.82
32759;BME280;19125;52.360;9.974;2023-04-02T13:24:27;86838.19;;;-145.17;35.76
32759;BME280;19125;52.360;9.974;2023-04-02T13:26:55;86842.16;;;-145.17;35.64
32759;BME280;19125;52.360;9.974;2023-04-02T13:29:29;86889.78;;;-145.17;36.10
32759;BME280;19125;52.360;9.974;2023-04-02T13:32:03;86893.75;;;-145.17;35.45
32759;BME280;19125;52.360;9.974;2023-04-02T13:34:29;86846.13;;;-145.17;36.50
32759;BME280;19125;52.360;9.974;2023-04-02T13:36:55;86848.13;;;-145.17;36.36
32759;BME280;19125;52.360;9.974;2023-04-02T13:39:21;86784.59;;;-145.17;35.61
32759;BME280;19125;52.360;9.974;2023-04-02T13:41:50;86800.47;;;-145.17;34.40
32759;BME280;19125;52.360;9.974;2023-04-02T13:44:22;86772.69;;;-145.17;35.06
32759;BME280;19125;52.360;9.974;2023-04-02T13:46:48;86758.81;;;-145.17;34.56
32759;BME280;19125;52.360;9.974;2023-04-02T13:49:13;86707.19;;;-145.17;35.28
32759;BME280;19125;52.360;9.974;2023-04-02T13:51:44;86667.50;;;-145.17;35.64
32759;BME280;19125;52.360;9.974;2023-04-02T13:54:18;86657.59;;;-145.17;34.62
32759;BME280;19125;52.360;9.974;2023-04-02T13:56:46;86727.03;;;-145.17;34.71
32759;BME280;19125;52.360;9.974;2023-04-02T13:59:12;86814.38;;;-145.17;35.15
32759;BME280;19125;52.360;9.974;2023-04-02T14:01:38;86838.19;;;-145.17;35.23
32759;BME280;19125;52.360;9.974;2023-04-02T14:04:05;86864.00;;;-145.17;36.02
32759;BME280;19125;52.360;9.974;2023-04-02T14:18:01;86828.25;;;-145.17;35.48
32759;BME280;19125;52.360;9.974;2023-04-02T14:32:08;86734.97;;;-145.17;33.44
32759;BME280;19125;52.360;9.974;2023-04-02T14:35:08;86776.66;;;-145.17;34.25
32759;BME280;19125;52.360;9.974;2023-04-02T14:37:47;86822.31;;;-145.17;34.55
32759;BME280;19125;52.360;9.974;2023-04-02T14:43:22;86830.25;;;-145.17;35.38
32759;BME280;19125;52.360;9.974;2023-04-02T14:45:59;86862.00;;;-145.17;34.96
32759;BME280;19125;52.360;9.974;2023-04-02T14:51:26;86875.91;;;-145.17;34.92
32759;BME280;19125;52.360;9.974;2023-04-02T14:56:54;86812.38;;;-145.17;35.62
32759;BME280;19125;52.360;9.974;2023-04-02T15:02:46;86721.09;;;-145.17;35.04
32759;BME280;19125;52.360;9.974;2023-04-02T15:05:19;86731.00;;;-145.17;35.45
32759;BME280;19125;52.360;9.974;2023-04-02T15:07:55;86784.59;;;-145.17;35.02
32759;BME280;19125;52.360;9.974;2023-04-02T15:10:30;86784.59;;;-145.17;34.90
32759;BME280;19125;52.360;9.974;2023-04-02T15:12:57;86822.31;;;-145.17;34.20
32759;BME280;19125;52.360;9.974;2023-04-02T15:15:39;86850.09;;;-145.17;34.24
32759;BME280;19125;52.360;9.974;2023-04-02T15:18:15;86865.97;;;-145.17;nan
32759;BME280;19125;52.360;9.974;2023-04-02T15:24:01;86867.97;;;-145.17;35.97
32759;BME280;19125;52.360;9.974;2023-04-02T15:29:43;86826.28;;;-145.17;36.18
32759;BME280;19125;52.360;9.974;2023-04-02T15:35:21;86734.97;;;-145.17;34.17
32759;BME280;19125;52.360;9.974;2023-04-02T15:38:03;86746.91;;;-145.17;35.18
32759;BME280;19125;52.360;9.974;2023-04-02T15:46:58;86794.53;;;-145.17;33.89
32759;BME280;19125;52.360;9.974;2023-04-02T15:55:27;86897.72;;;-145.17;35.65
32759;BME280;19125;52.360;9.974;2023-04-02T16:00:25;86826.28;;;-145.17;36.33
32759;BME280;19125;52.360;9.974;2023-04-02T16:06:06;86858.03;;;-145.17;36.55
32759;BME280;19125;52.360;9.974;2023-04-02T16:11:25;86830.25;;;-145.17;35.50
32759;BME280;19125;52.360;9.974;2023-04-02T16:13:59;86840.16;;;-145.17;35.72
32759;BME280;19125;52.360;9.974;2023-04-02T16:16:33;86862.00;;;-145.17;36.11
32759;BME280;19125;52.360;9.974;2023-04-02T16:21:36;86838.19;;;-145.17;36.15
32759;BME280;19125;52.360;9.974;2023-04-02T16:24:10;86889.78;;;-145.17;36.52
32759;BME280;19125;52.360;9.974;2023-04-02T16:26:45;86816.34;;;-145.17;35.20
32759;BME280;19125;52.360;9.974;2023-04-02T16:34:57;86846.13;;;-145.17;36.37
32759;BME280;19125;52.360;9.974;2023-04-02T16:37:46;86885.81;;;-145.17;35.98
32759;BME280;19125;52.360;9.974;2023-04-02T16:42:59;86917.56;;;-145.17;36.61
32759;BME280;19125;52.360;9.974;2023-04-02T16:45:41;86869.94;;;-145.17;36.04
32759;BME280;19125;52.360;9.974;2023-04-02T16:48:38;86871.94;;;-145.17;36.22
32759;BME280;19125;52.360;9.974;2023-04-02T16:51:23;86875.91;;;-145.17;36.45